BBC Switzerland — DGFL2 — position and weather

sailwx.info

Track history (hours):
 
Tides and Currents Weather Stations Pressure Air Temp Water Temp Dewpoint Dewpoint Depression Visibility Wind Speed Wind Dir Waves Ship Positions

BBC Switzerland

Last reported at 2015-Jun-14 06:10 UTC. Time now 2015-Jul-02 12:36 UTC.
Position N 28°24' W 015°58'.
Warning: this ship's position is 18 days out of date.

Length 119 m; draft 7.1 m.

Type: Cargo ship. MMSI: 218629000.

Date/timePositionNaut miles runAvg speedWind from/ knotsBaromVisibWave heightAir tempDewpointWater temp
2015-Jun-14 06:10N 28°24' W 015°58'1114.7
2015-Jun-14 05:23N 28°33' W 015°49'1314.7
2015-Jun-14 04:32N 28°44' W 015°42'  
2015-Jun-08 18:12N 50°33' E 000°17'1015.3
2015-Jun-08 17:33N 50°36' E 000°32'1414.4
2015-Jun-08 16:34N 50°44' E 000°51'2713.3
2015-Jun-08 14:33N 51°01' E 001°22'1515.0
2015-Jun-08 13:34N 51°11' E 001°41'1616.2
2015-Jun-08 12:33N 51°25' E 001°55'17414.0
2015-Jun-08 00:07N 53°35' E 005°05'712.4
2015-Jun-07 23:32N 53°37' E 005°16'1212.0
2015-Jun-07 22:33N 53°41' E 005°35'6113.9
2015-Jun-07 18:10N 53°58' E 007°15'5 8.6
2015-Jun-07 17:33N 53°59' E 007°23'1413.6
2015-Jun-07 16:34N 54°02' E 007°46'2613.1
2015-Jun-07 14:32N 53°58' E 008°30'1110.9
2015-Jun-07 13:34N 53°52' E 008°45'1010.2
2015-Jun-07 12:33N 53°52' E 009°02'4 4.4
2015-Jun-07 11:33N 53°54' E 009°09'1 1.1
2015-Jun-07 10:28N 53°55' E 009°10'0 0.4
2015-Jun-07 09:31N 53°55' E 009°11'0 0.0
2015-Jun-07 08:07N 53°55' E 009°11'0 0.0
2015-Jun-07 07:12N 53°55' E 009°11'36 6.4
2015-Jun-07 01:34N 54°21' E 009°53'6 6.3
2015-Jun-07 00:34N 54°22' E 010°04'3 2.8
2015-Jun-06 23:34N 54°22' E 010°09'1 1.4
2015-Jun-06 22:34N 54°23' E 010°11'9 8.6
2015-Jun-06 21:34N 54°30' E 010°18'2612.1
2015-Jun-06 19:26N 54°36' E 011°01'1112.5
2015-Jun-06 18:33N 54°34' E 011°20'1313.2
2015-Jun-06 17:33N 54°28' E 011°40'1312.7
2015-Jun-06 16:33N 54°26' E 012°02'8811.7
2015-Jun-06 09:04N 54°38' E 014°31'713.6
2015-Jun-06 08:33N 54°39' E 014°44'1413.7
2015-Jun-06 07:33N 54°41' E 015°07'1513.6
2015-Jun-06 06:29N 54°43' E 015°32'6713.6
2015-Jun-06 01:33N 54°55' E 017°26'1413.7
2015-Jun-06 00:33N 54°57' E 017°50'1413.8
2015-Jun-05 23:34N 54°58' E 018°14'1313.4
2015-Jun-05 22:33N 54°55' E 018°37'1414.0
2015-Jun-05 21:33N 54°47' E 018°56'1212.1
2015-Jun-05 20:33N 54°34' E 018°53'1010.3
2015-Jun-05 19:33N 54°32' E 018°36'3 3.0
2015-Jun-05 18:31N 54°33' E 018°30'0 0.0
2015-Jun-05 17:31N 54°33' E 018°30'0 0.0
2015-Jun-05 16:31N 54°33' E 018°30'0 0.0
2015-Jun-05 15:31N 54°33' E 018°30'0 0.0
2015-Jun-05 14:31N 54°33' E 018°30'0 0.0
2015-Jun-05 13:31N 54°33' E 018°30'0 0.0
2015-Jun-05 12:31N 54°33' E 018°30'0 0.0
2015-Jun-05 11:31N 54°33' E 018°30'0 0.0
2015-Jun-05 10:31N 54°33' E 018°30'0 0.0
2015-Jun-05 09:31N 54°33' E 018°30'0 0.0
2015-Jun-05 08:31N 54°33' E 018°30'0 0.0
2015-Jun-05 07:31N 54°33' E 018°30'0 0.0
2015-Jun-05 06:31N 54°33' E 018°30'0 0.0
2015-Jun-05 05:31N 54°33' E 018°30'0 0.0
2015-Jun-05 04:31N 54°33' E 018°30'0 0.0
2015-Jun-05 03:31N 54°33' E 018°30'0 0.0
2015-Jun-05 02:28N 54°33' E 018°30'0 0.0
2015-Jun-05 01:31N 54°33' E 018°30'0 0.0
2015-Jun-05 00:31N 54°33' E 018°30'0 0.0
2015-Jun-04 23:31N 54°33' E 018°30'0 0.0
2015-Jun-04 22:31N 54°33' E 018°30'1 0.5
2015-Jun-04 21:34N 54°32' E 018°31'4 4.0
2015-Jun-04 20:33N 54°31' E 018°38'0 0.1
2015-Jun-04 19:33N 54°31' E 018°38'0 0.0
2015-Jun-04 18:33N 54°31' E 018°38'0 0.0
2015-Jun-04 17:33N 54°31' E 018°38'0 0.0
2015-Jun-04 16:33N 54°31' E 018°38'0 0.0
2015-Jun-04 15:33N 54°31' E 018°38'0 0.0
2015-Jun-04 14:33N 54°31' E 018°38'0 0.0
2015-Jun-04 13:33N 54°31' E 018°38'0 0.0
2015-Jun-04 12:33N 54°31' E 018°38'0 0.0
2015-Jun-04 11:33N 54°31' E 018°38'0 0.0
2015-Jun-04 10:33N 54°31' E 018°38'0 0.0
2015-Jun-04 09:33N 54°31' E 018°38'0 0.0
2015-Jun-04 08:33N 54°31' E 018°38'1 1.3
2015-Jun-04 07:33N 54°32' E 018°39'9 8.9
2015-Jun-04 06:34N 54°36' E 018°53'  
Track history (hours):
 
Tides and Currents Weather Stations Pressure Air Temp Water Temp Dewpoint Dewpoint Depression Visibility Wind Speed Wind Dir Waves Ship Positions

BBC Switzerland

Last reported at 2015-Jun-14 06:10 UTC. Time now 2015-Jul-02 12:36 UTC.
Position N 28°24' W 015°58'.
Warning: this ship's position is 18 days out of date.

Length 119 m; draft 7.1 m.

Type: Cargo ship. MMSI: 218629000.

Date/timePositionNaut miles runAvg speedWind from/ knotsBaromVisibWave heightAir tempDewpointWater temp
2015-Jun-14 06:10N 28°24' W 015°58'1114.7
2015-Jun-14 05:23N 28°33' W 015°49'1314.7
2015-Jun-14 04:32N 28°44' W 015°42'  
2015-Jun-08 18:12N 50°33' E 000°17'1015.3
2015-Jun-08 17:33N 50°36' E 000°32'1414.4
2015-Jun-08 16:34N 50°44' E 000°51'2713.3
2015-Jun-08 14:33N 51°01' E 001°22'1515.0
2015-Jun-08 13:34N 51°11' E 001°41'1616.2
2015-Jun-08 12:33N 51°25' E 001°55'17414.0
2015-Jun-08 00:07N 53°35' E 005°05'712.4
2015-Jun-07 23:32N 53°37' E 005°16'1212.0
2015-Jun-07 22:33N 53°41' E 005°35'6113.9
2015-Jun-07 18:10N 53°58' E 007°15'5 8.6
2015-Jun-07 17:33N 53°59' E 007°23'1413.6
2015-Jun-07 16:34N 54°02' E 007°46'2613.1
2015-Jun-07 14:32N 53°58' E 008°30'1110.9
2015-Jun-07 13:34N 53°52' E 008°45'1010.2
2015-Jun-07 12:33N 53°52' E 009°02'4 4.4
2015-Jun-07 11:33N 53°54' E 009°09'1 1.1
2015-Jun-07 10:28N 53°55' E 009°10'0 0.4
2015-Jun-07 09:31N 53°55' E 009°11'0 0.0
2015-Jun-07 08:07N 53°55' E 009°11'0 0.0
2015-Jun-07 07:12N 53°55' E 009°11'36 6.4
2015-Jun-07 01:34N 54°21' E 009°53'6 6.3
2015-Jun-07 00:34N 54°22' E 010°04'3 2.8
2015-Jun-06 23:34N 54°22' E 010°09'1 1.4
2015-Jun-06 22:34N 54°23' E 010°11'9 8.6
2015-Jun-06 21:34N 54°30' E 010°18'2612.1
2015-Jun-06 19:26N 54°36' E 011°01'1112.5
2015-Jun-06 18:33N 54°34' E 011°20'1313.2
2015-Jun-06 17:33N 54°28' E 011°40'1312.7
2015-Jun-06 16:33N 54°26' E 012°02'8811.7
2015-Jun-06 09:04N 54°38' E 014°31'713.6
2015-Jun-06 08:33N 54°39' E 014°44'1413.7
2015-Jun-06 07:33N 54°41' E 015°07'1513.6
2015-Jun-06 06:29N 54°43' E 015°32'6713.6
2015-Jun-06 01:33N 54°55' E 017°26'1413.7
2015-Jun-06 00:33N 54°57' E 017°50'1413.8
2015-Jun-05 23:34N 54°58' E 018°14'1313.4
2015-Jun-05 22:33N 54°55' E 018°37'1414.0
2015-Jun-05 21:33N 54°47' E 018°56'1212.1
2015-Jun-05 20:33N 54°34' E 018°53'1010.3
2015-Jun-05 19:33N 54°32' E 018°36'3 3.0
2015-Jun-05 18:31N 54°33' E 018°30'0 0.0
2015-Jun-05 17:31N 54°33' E 018°30'0 0.0
2015-Jun-05 16:31N 54°33' E 018°30'0 0.0
2015-Jun-05 15:31N 54°33' E 018°30'0 0.0
2015-Jun-05 14:31N 54°33' E 018°30'0 0.0
2015-Jun-05 13:31N 54°33' E 018°30'0 0.0
2015-Jun-05 12:31N 54°33' E 018°30'0 0.0
2015-Jun-05 11:31N 54°33' E 018°30'0 0.0
2015-Jun-05 10:31N 54°33' E 018°30'0 0.0
2015-Jun-05 09:31N 54°33' E 018°30'0 0.0
2015-Jun-05 08:31N 54°33' E 018°30'0 0.0
2015-Jun-05 07:31N 54°33' E 018°30'0 0.0
2015-Jun-05 06:31N 54°33' E 018°30'0 0.0
2015-Jun-05 05:31N 54°33' E 018°30'0 0.0
2015-Jun-05 04:31N 54°33' E 018°30'0 0.0
2015-Jun-05 03:31N 54°33' E 018°30'0 0.0
2015-Jun-05 02:28N 54°33' E 018°30'0 0.0
2015-Jun-05 01:31N 54°33' E 018°30'0 0.0
2015-Jun-05 00:31N 54°33' E 018°30'0 0.0
2015-Jun-04 23:31N 54°33' E 018°30'0 0.0
2015-Jun-04 22:31N 54°33' E 018°30'1 0.5
2015-Jun-04 21:34N 54°32' E 018°31'4 4.0
2015-Jun-04 20:33N 54°31' E 018°38'0 0.1
2015-Jun-04 19:33N 54°31' E 018°38'0 0.0
2015-Jun-04 18:33N 54°31' E 018°38'0 0.0
2015-Jun-04 17:33N 54°31' E 018°38'0 0.0
2015-Jun-04 16:33N 54°31' E 018°38'0 0.0
2015-Jun-04 15:33N 54°31' E 018°38'0 0.0
2015-Jun-04 14:33N 54°31' E 018°38'0 0.0
2015-Jun-04 13:33N 54°31' E 018°38'0 0.0
2015-Jun-04 12:33N 54°31' E 018°38'0 0.0
2015-Jun-04 11:33N 54°31' E 018°38'0 0.0
2015-Jun-04 10:33N 54°31' E 018°38'0 0.0
2015-Jun-04 09:33N 54°31' E 018°38'0 0.0
2015-Jun-04 08:33N 54°31' E 018°38'1 1.3
2015-Jun-04 07:33N 54°32' E 018°39'9 8.9
2015-Jun-04 06:34N 54°36' E 018°53'  

Dump ship's entire track history